createdAt,value
2022-09-02T00:00:15.638Z,98181.44
2022-09-02T00:02:42.594Z,98178.25
2022-09-02T00:07:53.328Z,98183.25
2022-09-02T00:10:19.657Z,98182.69
2022-09-02T00:12:45.972Z,98189.28
2022-09-02T00:15:12.284Z,98177.22
2022-09-02T00:17:38.912Z,98180.16
2022-09-02T00:20:08.317Z,98182.25
2022-09-02T00:22:35.930Z,98186.19
2022-09-02T00:25:02.215Z,98176.81
2022-09-02T00:27:30.586Z,98182.38
2022-09-02T00:29:57.095Z,98184.50
2022-09-02T00:32:24.364Z,98181.28
2022-09-02T00:34:50.672Z,98178.03
2022-09-02T00:37:16.984Z,98179.31
2022-09-02T00:39:43.468Z,98176.09
2022-09-02T00:42:09.810Z,98173.63
2022-09-02T00:44:36.375Z,98166.09
2022-09-02T00:47:03.071Z,98171.69
2022-09-02T00:49:29.615Z,98166.84
2022-09-02T00:51:56.527Z,98164.41
2022-09-02T00:54:23.307Z,98165.69
2022-09-02T00:56:49.569Z,98166.75
2022-09-02T00:59:20.353Z,98162.94
2022-09-02T01:01:47.162Z,98165.84
2022-09-02T01:04:14.615Z,98164.69
2022-09-02T01:06:41.031Z,98158.78
2022-09-02T01:09:07.506Z,98161.94
2022-09-02T01:11:33.836Z,98161.63
2022-09-02T01:14:00.634Z,98155.94
2022-09-02T01:16:27.285Z,98158.53
2022-09-02T01:18:53.709Z,98155.75
2022-09-02T01:21:20.211Z,98159.94
2022-09-02T01:23:47.022Z,98156.38
2022-09-02T01:26:14.023Z,98149.88
2022-09-02T01:28:40.292Z,98153.28
2022-09-02T01:31:07.514Z,98147.81
2022-09-02T01:33:33.833Z,98149.31
2022-09-02T01:36:01.710Z,98150.03
2022-09-02T01:38:28.541Z,98146.22
2022-09-02T01:40:54.844Z,98147.72
2022-09-02T01:43:22.085Z,98144.72
2022-09-02T01:45:48.363Z,98143.59
2022-09-02T01:48:14.743Z,98136.53
2022-09-02T01:50:49.256Z,98138.84
2022-09-02T01:53:15.703Z,98138.50
2022-09-02T01:55:43.651Z,98140.03
2022-09-02T01:58:10.839Z,98134.38
2022-09-02T02:00:38.830Z,98132.97
2022-09-02T02:03:05.631Z,98133.44
2022-09-02T02:05:35.363Z,98134.97
2022-09-02T02:08:03.835Z,98130.09
2022-09-02T02:10:30.183Z,98129.53
2022-09-02T02:12:56.540Z,98132.91
2022-09-02T02:17:55.048Z,98137.53
2022-09-02T02:20:21.451Z,98137.75
2022-09-02T02:22:47.788Z,98140.88
2022-09-02T02:25:15.479Z,98144.03
2022-09-02T02:27:43.738Z,98135.69
2022-09-02T02:30:10.306Z,98130.81
2022-09-02T02:32:36.728Z,98134.75
2022-09-02T02:35:03.174Z,98137.88
2022-09-02T02:37:30.110Z,98132.19
2022-09-02T02:39:56.643Z,98134.25
2022-09-02T02:42:23.913Z,98132.84
2022-09-02T02:44:50.306Z,98123.50
2022-09-02T02:47:17.861Z,98133.56
2022-09-02T02:49:44.338Z,98130.31
2022-09-02T02:52:10.727Z,98129.97
2022-09-02T02:54:37.805Z,98126.16
2022-09-02T02:57:04.283Z,98126.38
2022-09-02T02:59:30.774Z,98122.31
2022-09-02T03:01:57.492Z,98125.47
2022-09-02T03:04:23.977Z,98124.88
2022-09-02T03:06:50.770Z,98118.38
2022-09-02T03:09:17.096Z,98122.09
2022-09-02T03:11:45.594Z,98121.75
2022-09-02T03:14:11.990Z,98116.84
2022-09-02T03:16:38.939Z,98118.13
2022-09-02T03:19:05.859Z,98121.25
2022-09-02T03:21:38.742Z,98120.88
2022-09-02T03:24:06.767Z,98119.50
2022-09-02T03:26:34.466Z,98117.31
2022-09-02T03:29:01.772Z,98111.41
2022-09-02T03:31:29.647Z,98120.63
2022-09-02T03:33:56.056Z,98118.44
2022-09-02T03:36:22.438Z,98120.50
2022-09-02T03:38:49.143Z,98111.16
2022-09-02T03:41:17.352Z,98110.56
2022-09-02T03:43:43.692Z,98108.34
2022-09-02T03:46:10.044Z,98112.88
2022-09-02T03:48:36.705Z,98113.31
2022-09-02T03:51:03.171Z,98109.25
2022-09-02T03:53:31.322Z,98112.94
2022-09-02T03:55:57.954Z,98109.72
2022-09-02T03:58:24.785Z,98115.28
2022-09-02T04:00:51.136Z,98110.16
2022-09-02T04:03:17.917Z,98103.22
2022-09-02T04:05:44.957Z,98114.09
2022-09-02T04:08:11.249Z,98110.63
2022-09-02T04:10:37.498Z,98111.66
2022-09-02T04:13:03.785Z,98106.22
2022-09-02T04:15:30.109Z,98124.38
2022-09-02T04:17:56.653Z,98115.59
2022-09-02T04:20:23.043Z,98116.63
2022-09-02T04:22:49.380Z,98119.53
2022-09-02T04:25:15.644Z,98117.88
2022-09-02T04:27:41.865Z,98124.25
2022-09-02T04:30:08.129Z,98119.94
2022-09-02T04:32:38.441Z,98118.34
2022-09-02T04:35:07.858Z,98117.28
2022-09-02T04:37:37.243Z,98119.06
2022-09-02T04:40:03.581Z,98122.81
2022-09-02T04:42:29.895Z,98121.25
2022-09-02T04:44:56.288Z,98116.66
2022-09-02T04:47:23.186Z,98125.69
2022-09-02T04:49:49.831Z,98129.88
2022-09-02T04:52:16.700Z,98127.91
2022-09-02T04:54:43.507Z,98130.28
2022-09-02T04:57:09.840Z,98133.03
2022-09-02T04:59:36.195Z,98132.53
2022-09-02T05:02:05.903Z,98134.94
2022-09-02T05:04:32.416Z,98142.19
2022-09-02T05:06:58.732Z,98138.16
2022-09-02T05:09:25.195Z,98141.56
2022-09-02T05:11:51.509Z,98139.31
2022-09-02T05:14:17.801Z,98135.13
2022-09-02T05:16:44.234Z,98141.50
2022-09-02T05:19:10.561Z,98138.75
2022-09-02T05:21:36.864Z,98139.63
2022-09-02T05:24:03.354Z,98139.44
2022-09-02T05:26:29.872Z,98135.81
2022-09-02T05:28:56.158Z,98136.81
2022-09-02T05:31:22.508Z,98144.97
2022-09-02T05:33:48.875Z,98144.38
2022-09-02T05:36:15.313Z,98140.63
2022-09-02T05:38:41.581Z,98141.41
2022-09-02T05:41:07.846Z,98143.00
2022-09-02T05:43:34.153Z,98135.47
2022-09-02T05:46:00.749Z,98139.09
2022-09-02T05:48:27.505Z,98128.78
2022-09-02T05:50:57.372Z,98134.13
2022-09-02T05:53:24.124Z,98137.09
2022-09-02T05:55:50.478Z,98136.63
2022-09-02T05:58:16.799Z,98133.75
2022-09-02T06:00:43.204Z,98129.50
2022-09-02T06:03:09.646Z,98130.09
2022-09-02T06:05:36.112Z,98128.53
2022-09-02T06:08:02.545Z,98125.56
2022-09-02T06:10:28.835Z,98131.41
2022-09-02T06:12:55.106Z,98127.16
2022-09-02T06:15:21.399Z,98126.94
2022-09-02T06:17:47.657Z,98135.38
2022-09-02T06:20:13.954Z,98135.09
2022-09-02T06:22:40.466Z,98132.59
2022-09-02T06:25:06.795Z,98136.16
2022-09-02T06:27:33.147Z,98134.88
2022-09-02T06:29:59.505Z,98129.53
2022-09-02T06:32:25.801Z,98130.06
2022-09-02T06:37:37.360Z,98116.09
2022-09-02T06:40:04.248Z,98114.44
2022-09-02T06:42:30.536Z,98118.25
2022-09-02T06:44:57.128Z,98108.06
2022-09-02T06:47:23.474Z,98117.81
2022-09-02T06:49:50.091Z,98117.31
2022-09-02T06:52:16.407Z,98127.53
2022-09-02T06:54:43.179Z,98118.94
2022-09-02T06:57:09.487Z,98114.66
2022-09-02T06:59:36.084Z,98116.81
2022-09-02T07:02:02.684Z,98125.66
2022-09-02T07:04:31.191Z,98117.31
2022-09-02T07:06:57.812Z,98121.84
2022-09-02T07:09:24.173Z,98120.44
2022-09-02T07:11:50.458Z,98119.31
2022-09-02T07:14:17.204Z,98125.19
2022-09-02T07:16:45.865Z,98125.66
2022-09-02T07:19:16.117Z,98120.72
2022-09-02T07:21:44.842Z,98124.94
2022-09-02T07:24:11.164Z,98124.38
2022-09-02T07:26:37.446Z,98126.66
2022-09-02T07:29:03.998Z,98123.59
2022-09-02T07:31:30.399Z,98115.63
2022-09-02T07:33:56.687Z,98113.63
2022-09-02T07:36:23.059Z,98119.97
2022-09-02T07:38:49.334Z,98124.13
2022-09-02T07:41:15.647Z,98120.44
2022-09-02T07:43:41.930Z,98124.91
2022-09-02T07:46:08.275Z,98117.72
2022-09-02T07:48:34.670Z,98115.09
2022-09-02T07:51:01.027Z,98124.91
2022-09-02T07:53:27.445Z,98122.00
2022-09-02T07:55:54.168Z,98123.72
2022-09-02T07:58:20.506Z,98117.78
2022-09-02T08:00:46.759Z,98121.56
2022-09-02T08:03:13.315Z,98121.56
2022-09-02T08:05:39.627Z,98113.38
2022-09-02T08:08:06.439Z,98117.84
2022-09-02T08:10:32.709Z,98116.38
2022-09-02T08:12:59.113Z,98107.53
2022-09-02T08:15:25.400Z,98115.75
2022-09-02T08:17:52.874Z,98129.09
2022-09-02T08:20:19.174Z,98138.19
2022-09-02T08:22:48.956Z,98144.06
2022-09-02T08:25:22.279Z,98149.66
2022-09-02T08:27:51.541Z,98149.13
2022-09-02T08:30:17.886Z,98166.94
2022-09-02T08:32:44.163Z,98167.34
2022-09-02T08:35:10.459Z,98172.75
2022-09-02T08:37:36.785Z,98182.41
2022-09-02T08:40:04.763Z,98178.00
2022-09-02T08:42:31.203Z,98173.75
2022-09-02T08:44:57.912Z,98157.91
2022-09-02T08:47:24.253Z,98147.34
2022-09-02T08:49:50.657Z,98130.50
2022-09-02T08:52:17.863Z,98106.66
2022-09-02T08:54:44.504Z,98091.06
2022-09-02T08:57:10.825Z,98071.28
2022-09-02T08:59:37.271Z,98071.50
2022-09-02T09:02:05.938Z,98057.78
2022-09-02T09:04:32.277Z,98063.69
2022-09-02T09:06:58.653Z,98057.38
2022-09-02T09:09:25.499Z,98041.84
2022-09-02T09:11:52.160Z,98045.19
2022-09-02T09:14:20.488Z,98035.47
2022-09-02T09:16:46.850Z,98029.47
2022-09-02T09:19:13.254Z,98044.44
2022-09-02T09:21:39.576Z,98028.19
2022-09-02T09:24:06.225Z,98036.47
2022-09-02T09:26:32.477Z,98033.03
2022-09-02T09:28:58.735Z,98033.91
2022-09-02T09:31:25.351Z,98029.09
2022-09-02T09:33:52.109Z,98025.34
2022-09-02T09:36:18.444Z,98028.88
2022-09-02T09:38:44.758Z,98025.34
2022-09-02T09:41:11.329Z,98024.84
2022-09-02T09:43:37.634Z,98022.72
2022-09-02T09:46:04.068Z,98017.41
2022-09-02T09:48:30.471Z,98009.84
2022-09-02T09:50:56.734Z,98005.56
2022-09-02T09:53:23.128Z,98013.69
2022-09-02T09:55:49.509Z,98013.69
2022-09-02T09:58:15.832Z,98006.66
2022-09-02T10:00:42.316Z,98003.47
2022-09-02T10:03:08.693Z,98006.16
2022-09-02T10:05:36.060Z,98001.53
2022-09-02T10:08:02.422Z,98003.94
2022-09-02T10:10:28.711Z,98013.38
2022-09-02T10:12:54.980Z,98006.88
2022-09-02T10:15:21.307Z,98014.69
2022-09-02T10:17:48.126Z,98004.38
2022-09-02T10:20:14.370Z,98007.59
2022-09-02T10:22:58.477Z,98006.50
2022-09-02T10:25:26.492Z,97996.94
2022-09-02T10:27:53.019Z,97988.09
2022-09-02T10:30:19.502Z,97990.06
2022-09-02T10:32:45.756Z,97979.41
2022-09-02T10:35:12.041Z,97971.69
2022-09-02T10:37:38.378Z,97966.66
2022-09-02T10:40:05.162Z,97962.09
2022-09-02T10:42:31.531Z,97963.50
2022-09-02T10:44:59.043Z,97962.16
2022-09-02T10:47:29.394Z,97961.31
2022-09-02T10:49:57.979Z,97962.03
2022-09-02T10:52:24.302Z,97959.94
2022-09-02T10:54:50.861Z,97959.16
2022-09-02T10:57:17.631Z,97950.06
2022-09-02T10:59:43.936Z,97950.84
2022-09-02T11:02:10.440Z,97947.84
2022-09-02T11:04:36.729Z,97944.06
2022-09-02T11:07:03.949Z,97946.84
2022-09-02T11:09:32.661Z,97939.31
2022-09-02T11:12:00.296Z,97948.50
2022-09-02T11:14:27.020Z,97933.97
2022-09-02T11:16:53.533Z,97938.38
2022-09-02T11:19:20.300Z,97939.75
2022-09-02T11:21:46.762Z,97940.34
2022-09-02T11:24:13.424Z,97936.59
2022-09-02T11:26:39.970Z,97942.88
2022-09-02T11:29:06.510Z,97938.03
2022-09-02T11:31:34.622Z,97954.81
2022-09-02T11:36:33.373Z,97937.03
2022-09-02T11:39:00.101Z,97934.41
2022-09-02T11:41:36.745Z,97937.13
2022-09-02T11:44:03.592Z,97935.03
2022-09-02T11:46:30.005Z,97928.03
2022-09-02T11:48:56.512Z,97922.13
2022-09-02T11:51:23.128Z,97930.50
2022-09-02T11:53:49.390Z,97918.91
2022-09-02T11:56:24.321Z,97924.88
2022-09-02T11:58:50.682Z,97916.50
2022-09-02T12:01:17.909Z,97918.69
2022-09-02T12:04:16.191Z,97918.72
2022-09-02T12:06:37.399Z,97914.41
2022-09-02T12:09:13.028Z,97909.69
2022-09-02T12:11:39.590Z,97906.97
2022-09-02T12:14:08.005Z,97903.97
2022-09-02T12:16:34.864Z,97909.16
2022-09-02T12:19:01.311Z,97898.88
2022-09-02T12:21:27.726Z,97896.09
2022-09-02T12:24:15.140Z,97897.19
2022-09-02T12:26:46.046Z,97889.91
2022-09-02T12:29:17.153Z,97876.47
2022-09-02T12:31:43.863Z,97876.25
2022-09-02T12:34:10.269Z,97889.16
2022-09-02T12:36:39.419Z,97883.16
2022-09-02T12:39:15.523Z,97881.00
2022-09-02T12:41:45.128Z,97879.09
2022-09-02T12:44:11.693Z,97858.63
2022-09-02T12:46:43.749Z,97873.47
2022-09-02T12:49:11.335Z,97861.59
2022-09-02T12:51:39.008Z,97860.59
2022-09-02T12:54:08.700Z,97851.97
2022-09-02T12:56:39.521Z,97853.34
2022-09-02T12:59:06.128Z,97854.44
2022-09-02T13:01:35.372Z,97852.50
2022-09-02T13:04:01.879Z,97843.28
2022-09-02T13:06:28.281Z,97850.09
2022-09-02T13:08:54.684Z,97843.38
2022-09-02T13:11:23.491Z,97834.75
2022-09-02T13:13:49.771Z,97835.03
2022-09-02T13:16:19.091Z,97839.13
2022-09-02T13:18:45.700Z,97837.78
2022-09-02T13:21:12.439Z,97838.59
2022-09-02T13:23:38.760Z,97835.09
2022-09-02T13:26:05.440Z,97836.75
2022-09-02T13:28:33.927Z,97826.25
2022-09-02T13:31:00.256Z,97830.34
2022-09-02T13:33:26.532Z,97823.63
2022-09-02T13:35:52.854Z,97825.81
2022-09-02T13:38:20.959Z,97824.22
2022-09-02T13:40:49.347Z,97817.19
2022-09-02T13:43:15.760Z,97828.00
2022-09-02T13:45:42.353Z,97811.25
2022-09-02T13:48:17.313Z,97812.84
2022-09-02T13:50:44.244Z,97805.25
2022-09-02T13:55:57.142Z,97811.19
2022-09-02T13:58:23.407Z,97816.88
2022-09-02T14:00:50.604Z,97807.44
2022-09-02T14:03:17.271Z,97820.63
2022-09-02T14:05:47.401Z,97808.78
2022-09-02T14:08:14.192Z,97807.66
2022-09-02T14:10:40.482Z,97805.25
2022-09-02T14:13:06.762Z,97810.66
2022-09-02T14:15:33.114Z,97804.16
2022-09-02T14:17:59.456Z,97799.88
2022-09-02T14:20:25.799Z,97804.16
2022-09-02T14:22:52.117Z,97796.88
2022-09-02T14:25:19.097Z,97794.47
2022-09-02T14:27:45.436Z,97802.06
2022-09-02T14:30:11.710Z,97791.84
2022-09-02T14:32:38.063Z,97790.22
2022-09-02T14:35:04.466Z,97792.16
2022-09-02T14:37:30.932Z,97789.22
2022-09-02T14:39:57.335Z,97791.91
2022-09-02T14:42:26.270Z,97792.69
2022-09-02T14:44:55.541Z,97789.72
2022-09-02T14:47:22.781Z,97790.53
2022-09-02T14:49:49.879Z,97787.00
2022-09-02T14:52:16.236Z,97781.63
2022-09-02T14:54:43.522Z,97788.94
2022-09-02T14:57:12.879Z,97786.25
2022-09-02T14:59:39.455Z,97771.94
2022-09-02T15:02:06.944Z,97773.53
2022-09-02T15:04:33.224Z,97769.25
2022-09-02T15:06:59.657Z,97775.16
2022-09-02T15:09:25.927Z,97767.06
2022-09-02T15:11:52.537Z,97764.38
2022-09-02T15:14:18.871Z,97759.25
2022-09-02T15:16:45.529Z,97772.22
2022-09-02T15:19:11.812Z,97761.75
2022-09-02T15:21:38.284Z,97753.28
2022-09-02T15:24:05.901Z,97762.59
2022-09-02T15:26:32.274Z,97753.22
2022-09-02T15:28:58.708Z,97748.88
2022-09-02T15:31:25.300Z,97752.19
2022-09-02T15:33:51.781Z,97747.38
2022-09-02T15:36:21.081Z,97752.25
2022-09-02T15:38:47.389Z,97747.97
2022-09-02T15:41:13.711Z,97744.22
2022-09-02T15:43:40.150Z,97746.41
2022-09-02T15:46:06.421Z,97737.22
2022-09-02T15:48:33.342Z,97729.72
2022-09-02T15:50:59.627Z,97728.91
2022-09-02T15:53:26.618Z,97734.59
2022-09-02T15:55:52.909Z,97737.56
2022-09-02T15:58:19.149Z,97737.88
2022-09-02T16:00:46.138Z,97728.19
2022-09-02T16:03:12.457Z,97724.69
2022-09-02T16:05:38.728Z,97726.56
2022-09-02T16:08:05.212Z,97718.78
2022-09-02T16:10:31.605Z,97723.66
2022-09-02T16:12:58.311Z,97723.94
2022-09-02T16:15:24.556Z,97723.13
2022-09-02T16:17:51.104Z,97706.47
2022-09-02T16:20:21.126Z,97724.53
2022-09-02T16:22:49.598Z,97716.75
2022-09-02T16:25:16.007Z,97718.06
2022-09-02T16:27:42.432Z,97712.16
2022-09-02T16:30:08.884Z,97717.03
2022-09-02T16:32:35.347Z,97717.34
2022-09-02T16:35:01.935Z,97704.97
2022-09-02T16:37:28.245Z,97709.84
2022-09-02T16:39:54.665Z,97710.13
2022-09-02T16:42:21.090Z,97696.44
2022-09-02T16:44:51.413Z,97696.72
2022-09-02T16:47:18.028Z,97691.63
2022-09-02T16:49:44.362Z,97688.41
2022-09-02T16:52:10.698Z,97695.69
2022-09-02T16:54:40.738Z,97684.38
2022-09-02T16:57:07.606Z,97694.66
2022-09-02T16:59:33.996Z,97690.38
2022-09-02T17:02:00.437Z,97696.34
2022-09-02T17:04:26.944Z,97691.25
2022-09-02T17:06:53.351Z,97699.56
2022-09-02T17:09:19.678Z,97696.41
2022-09-02T17:11:46.088Z,97696.41
2022-09-02T17:14:12.604Z,97692.66
2022-09-02T17:16:42.906Z,97696.44
2022-09-02T17:19:09.586Z,97691.63
2022-09-02T17:21:35.884Z,97704.28
2022-09-02T17:24:02.173Z,97700.28
2022-09-02T17:26:28.499Z,97701.63
2022-09-02T17:28:55.289Z,97700.84
2022-09-02T17:31:21.662Z,97696.84
2022-09-02T17:33:48.029Z,97712.19
2022-09-02T17:36:14.322Z,97710.06
2022-09-02T17:38:40.686Z,97713.03
2022-09-02T17:41:06.926Z,97723.28
2022-09-02T17:43:33.380Z,97713.91
2022-09-02T17:45:59.679Z,97709.06
2022-09-02T17:48:37.229Z,97717.44
2022-09-02T17:51:08.312Z,97711.81
2022-09-02T17:53:34.836Z,97708.59
2022-09-02T17:56:01.167Z,97716.41
2022-09-02T17:58:27.515Z,97709.72
2022-09-02T18:00:54.143Z,97711.91
2022-09-02T18:03:22.443Z,97722.13
2022-09-02T18:05:48.914Z,97718.41
2022-09-02T18:08:15.331Z,97729.75
2022-09-02T18:10:42.747Z,97714.16
2022-09-02T18:13:09.042Z,97725.50
2022-09-02T18:15:36.405Z,97721.75
2022-09-02T18:18:03.542Z,97724.22
2022-09-02T18:20:30.983Z,97714.81
2022-09-02T18:22:57.288Z,97726.94
2022-09-02T18:28:08.220Z,97747.69
2022-09-02T18:30:35.593Z,97749.34
2022-09-02T18:33:02.912Z,97747.22
2022-09-02T18:35:29.490Z,97745.09
2022-09-02T18:37:57.936Z,97740.25
2022-09-02T18:40:24.453Z,97748.88
2022-09-02T18:42:50.815Z,97755.66
2022-09-02T18:45:21.339Z,97748.13
2022-09-02T18:47:48.631Z,97748.69
2022-09-02T18:50:26.870Z,97760.78
2022-09-02T18:53:01.414Z,97755.97
2022-09-02T18:55:27.779Z,97761.06
2022-09-02T18:57:54.076Z,97762.44
2022-09-02T19:00:20.707Z,97756.81
2022-09-02T19:02:46.982Z,97758.16
2022-09-02T19:07:41.979Z,97762.75
2022-09-02T19:10:08.243Z,97758.47
2022-09-02T19:12:34.741Z,97768.97
2022-09-02T19:15:01.716Z,97769.53
2022-09-02T19:17:28.066Z,97761.72
2022-09-02T19:19:54.391Z,97758.81
2022-09-02T19:22:21.192Z,97766.34
2022-09-02T19:24:47.443Z,97763.94
2022-09-02T19:27:13.781Z,97765.28
2022-09-02T19:29:40.203Z,97765.56
2022-09-02T19:32:06.533Z,97775.78
2022-09-02T19:34:32.924Z,97778.75
2022-09-02T19:36:59.240Z,97765.88
2022-09-02T19:39:26.147Z,97769.09
2022-09-02T19:41:52.509Z,97780.13
2022-09-02T19:44:18.811Z,97772.34
2022-09-02T19:49:32.067Z,97777.44
2022-09-02T19:51:58.357Z,97777.19
2022-09-02T19:54:24.609Z,97776.66
2022-09-02T19:56:50.875Z,97776.94
2022-09-02T19:59:17.328Z,97781.78
2022-09-02T20:01:43.675Z,97764.88
2022-09-02T20:04:10.027Z,97783.41
2022-09-02T20:06:36.685Z,97784.75
2022-09-02T20:09:03.014Z,97782.34
2022-09-02T20:11:29.636Z,97791.75
2022-09-02T20:13:55.934Z,97786.91
2022-09-02T20:16:22.364Z,97781.00
2022-09-02T20:18:48.764Z,97786.91
2022-09-02T20:21:15.060Z,97789.06
2022-09-02T20:23:41.378Z,97783.16
2022-09-02T20:26:08.262Z,97788.25
2022-09-02T20:28:35.829Z,97786.94
2022-09-02T20:31:04.292Z,97785.31
2022-09-02T20:33:30.825Z,97764.41
2022-09-02T20:35:57.419Z,97778.91
2022-09-02T20:38:23.870Z,97787.19
2022-09-02T20:40:50.725Z,97789.09
2022-09-02T20:43:17.158Z,97787.47
2022-09-02T20:45:43.609Z,97791.25
2022-09-02T20:48:10.374Z,97786.16
2022-09-02T20:50:37.313Z,97791.53
2022-09-02T20:53:03.596Z,97800.63
2022-09-02T20:55:32.246Z,97791.81
2022-09-02T20:57:58.700Z,97787.50
2022-09-02T21:00:25.308Z,97792.84
2022-09-02T21:02:51.837Z,97792.31
2022-09-02T21:05:22.243Z,97787.22
2022-09-02T21:07:49.591Z,97788.31
2022-09-02T21:10:15.896Z,97772.50
2022-09-02T21:12:42.251Z,97784.28
2022-09-02T21:15:08.815Z,97782.69
2022-09-02T21:17:35.369Z,97783.75
2022-09-02T21:20:01.941Z,97792.06
2022-09-02T21:22:28.207Z,97778.94
2022-09-02T21:24:54.561Z,97782.69
2022-09-02T21:27:20.836Z,97780.00
2022-09-02T21:29:47.201Z,97770.63
2022-09-02T21:32:17.383Z,97773.56
2022-09-02T21:34:44.098Z,97773.84
2022-09-02T21:37:10.626Z,97766.06
2022-09-02T21:39:37.121Z,97777.84
2022-09-02T21:42:04.227Z,97773.56
2022-09-02T21:44:33.446Z,97781.09
2022-09-02T21:47:02.785Z,97777.88
2022-09-02T21:49:29.404Z,97783.22
2022-09-02T21:51:57.843Z,97777.31
2022-09-02T21:54:24.713Z,97785.66
2022-09-02T21:56:51.142Z,97782.16
2022-09-02T21:59:17.592Z,97779.47
2022-09-02T22:01:44.911Z,97778.69
2022-09-02T22:04:11.472Z,97779.75
2022-09-02T22:06:37.902Z,97771.16
2022-09-02T22:09:04.351Z,97773.56
2022-09-02T22:11:30.659Z,97775.75
2022-09-02T22:13:57.000Z,97767.44
2022-09-02T22:16:23.307Z,97773.03
2022-09-02T22:18:50.453Z,97774.63
2022-09-02T22:21:16.926Z,97775.97
2022-09-02T22:23:43.367Z,97777.31
2022-09-02T22:26:09.710Z,97774.38
2022-09-02T22:28:36.401Z,97768.47
2022-09-02T22:31:03.089Z,97769.78
2022-09-02T22:33:29.644Z,97780.78
2022-09-02T22:35:57.215Z,97774.88
2022-09-02T22:38:23.865Z,97774.34
2022-09-02T22:40:50.290Z,97773.81
2022-09-02T22:43:16.602Z,97775.16
2022-09-02T22:45:42.866Z,97779.16
2022-09-02T22:48:09.291Z,97768.69
2022-09-02T22:50:35.531Z,97770.88
2022-09-02T22:53:01.946Z,97773.28
2022-09-02T22:55:29.106Z,97773.50
2022-09-02T22:57:55.774Z,97775.69
2022-09-02T23:00:22.509Z,97761.72
2022-09-02T23:02:48.819Z,97769.22
2022-09-02T23:05:15.671Z,97772.19
2022-09-02T23:07:42.107Z,97767.09
2022-09-02T23:10:08.427Z,97758.50
2022-09-02T23:12:34.716Z,97762.50
2022-09-02T23:15:01.123Z,97769.75
2022-09-02T23:17:27.433Z,97756.88
2022-09-02T23:19:53.743Z,97766.00
2022-09-02T23:22:20.483Z,97756.59
2022-09-02T23:24:46.809Z,97755.00
2022-09-02T23:27:13.690Z,97757.13
2022-09-02T23:29:39.944Z,97745.06
2022-09-02T23:32:06.278Z,97744.78
2022-09-02T23:34:32.539Z,97742.38
2022-09-02T23:36:59.077Z,97738.91
2022-09-02T23:39:25.409Z,97733.78
2022-09-02T23:41:51.769Z,97733.28
2022-09-02T23:44:18.058Z,97734.31
2022-09-02T23:46:44.672Z,97728.41
2022-09-02T23:49:11.000Z,97721.75
2022-09-02T23:51:37.772Z,97718.25
2022-09-02T23:54:04.139Z,97715.84
2022-09-02T23:56:32.766Z,97719.53
2022-09-02T23:58:59.693Z,97696.50
